Redland, Florida
Current Conditions -  °F | °C
As of 9:58 PM on Thursday 18 Dec 2014 (Local Time) from KHST Reporting Station
Clear Clear  
Wind Chill: 62°   Ceiling: Unl
Heat Index: 62°   Visibility: 10mi
Dew Point: 60°   Wind: 3mph
Humidity: 95%   Direction: 240°WSW
Pressure: 30.12"   Gusts: NA
Location:  25.5222°N, 80.3827°W
Report Text: KHST 190258Z AUTO 24003KT 10SM CLR 17/16 A3012 RMK AO2 SLP203 T01660158 51011 $
Loading
Personal Weather Stations






























Interactive Weather Map New forecast layout! Learn more

10-Day Weather Forecast

Advertisements
Track Severe Weather on mobile